sensor_id;sensor_type;location;lat;lon;timestamp;P1;durP1;ratioP1;P2;durP2;ratioP2
67757;SDS011;54562;47.620;18.786;2022-07-09T00:02:49;6.60;;;2.50;;
67757;SDS011;54562;47.620;18.786;2022-07-09T00:05:54;7.70;;;2.60;;
67757;SDS011;54562;47.620;18.786;2022-07-09T00:08:59;8.70;;;3.10;;
67757;SDS011;54562;47.620;18.786;2022-07-09T00:12:05;6.70;;;2.80;;
67757;SDS011;54562;47.620;18.786;2022-07-09T00:15:12;7.10;;;2.70;;
67757;SDS011;54562;47.620;18.786;2022-07-09T00:18:16;8.80;;;2.70;;
67757;SDS011;54562;47.620;18.786;2022-07-09T00:21:22;6.70;;;2.60;;
67757;SDS011;54562;47.620;18.786;2022-07-09T00:24:26;5.20;;;2.30;;
67757;SDS011;54562;47.620;18.786;2022-07-09T00:27:31;6.60;;;2.70;;
67757;SDS011;54562;47.620;18.786;2022-07-09T00:30:37;6.00;;;2.80;;
67757;SDS011;54562;47.620;18.786;2022-07-09T00:33:41;6.60;;;2.70;;
67757;SDS011;54562;47.620;18.786;2022-07-09T00:36:46;7.20;;;2.60;;
67757;SDS011;54562;47.620;18.786;2022-07-09T00:39:51;8.10;;;3.00;;
67757;SDS011;54562;47.620;18.786;2022-07-09T00:42:56;6.60;;;2.70;;
67757;SDS011;54562;47.620;18.786;2022-07-09T00:46:01;7.30;;;2.90;;
67757;SDS011;54562;47.620;18.786;2022-07-09T00:49:06;6.40;;;2.70;;
67757;SDS011;54562;47.620;18.786;2022-07-09T00:52:13;6.00;;;2.60;;
67757;SDS011;54562;47.620;18.786;2022-07-09T00:55:20;6.30;;;2.80;;
67757;SDS011;54562;47.620;18.786;2022-07-09T00:58:25;7.50;;;2.70;;
67757;SDS011;54562;47.620;18.786;2022-07-09T01:01:30;6.20;;;2.90;;
67757;SDS011;54562;47.620;18.786;2022-07-09T01:04:36;7.60;;;2.70;;
67757;SDS011;54562;47.620;18.786;2022-07-09T01:07:42;7.50;;;3.00;;
67757;SDS011;54562;47.620;18.786;2022-07-09T01:10:47;6.50;;;2.60;;
67757;SDS011;54562;47.620;18.786;2022-07-09T01:13:54;8.40;;;2.90;;
67757;SDS011;54562;47.620;18.786;2022-07-09T01:17:01;11.10;;;2.90;;
67757;SDS011;54562;47.620;18.786;2022-07-09T01:20:09;7.10;;;2.70;;
67757;SDS011;54562;47.620;18.786;2022-07-09T01:23:14;8.20;;;3.10;;
67757;SDS011;54562;47.620;18.786;2022-07-09T01:26:21;5.30;;;2.70;;
67757;SDS011;54562;47.620;18.786;2022-07-09T01:29:27;6.20;;;2.80;;
67757;SDS011;54562;47.620;18.786;2022-07-09T01:32:32;7.00;;;3.00;;
67757;SDS011;54562;47.620;18.786;2022-07-09T01:35:38;7.80;;;2.90;;
67757;SDS011;54562;47.620;18.786;2022-07-09T01:38:43;7.70;;;2.90;;
67757;SDS011;54562;47.620;18.786;2022-07-09T01:41:48;6.00;;;3.10;;
67757;SDS011;54562;47.620;18.786;2022-07-09T01:44:53;6.40;;;2.80;;
67757;SDS011;54562;47.620;18.786;2022-07-09T01:47:58;5.90;;;2.80;;
67757;SDS011;54562;47.620;18.786;2022-07-09T01:51:03;6.10;;;2.90;;
67757;SDS011;54562;47.620;18.786;2022-07-09T01:54:08;6.40;;;2.90;;
67757;SDS011;54562;47.620;18.786;2022-07-09T01:57:14;6.70;;;2.90;;
67757;SDS011;54562;47.620;18.786;2022-07-09T02:00:19;7.30;;;3.20;;
67757;SDS011;54562;47.620;18.786;2022-07-09T02:03:24;7.80;;;2.90;;
67757;SDS011;54562;47.620;18.786;2022-07-09T02:06:29;7.50;;;2.80;;
67757;SDS011;54562;47.620;18.786;2022-07-09T02:09:34;8.70;;;3.00;;
67757;SDS011;54562;47.620;18.786;2022-07-09T02:12:38;6.10;;;3.00;;
67757;SDS011;54562;47.620;18.786;2022-07-09T02:15:43;6.40;;;2.70;;
67757;SDS011;54562;47.620;18.786;2022-07-09T02:18:48;6.00;;;2.90;;
67757;SDS011;54562;47.620;18.786;2022-07-09T02:21:53;6.60;;;3.20;;
67757;SDS011;54562;47.620;18.786;2022-07-09T02:24:58;6.90;;;3.20;;
67757;SDS011;54562;47.620;18.786;2022-07-09T02:28:03;7.20;;;3.20;;
67757;SDS011;54562;47.620;18.786;2022-07-09T02:31:08;6.80;;;3.00;;
67757;SDS011;54562;47.620;18.786;2022-07-09T02:34:13;7.50;;;3.10;;
67757;SDS011;54562;47.620;18.786;2022-07-09T02:37:18;6.30;;;3.00;;
67757;SDS011;54562;47.620;18.786;2022-07-09T02:40:23;7.10;;;3.10;;
67757;SDS011;54562;47.620;18.786;2022-07-09T02:43:28;8.00;;;3.20;;
67757;SDS011;54562;47.620;18.786;2022-07-09T02:46:33;7.30;;;3.40;;
67757;SDS011;54562;47.620;18.786;2022-07-09T02:49:38;6.90;;;3.30;;
67757;SDS011;54562;47.620;18.786;2022-07-09T02:52:43;6.90;;;3.40;;
67757;SDS011;54562;47.620;18.786;2022-07-09T02:55:48;11.50;;;3.50;;
67757;SDS011;54562;47.620;18.786;2022-07-09T02:58:53;9.10;;;3.60;;
67757;SDS011;54562;47.620;18.786;2022-07-09T03:01:57;7.40;;;3.50;;
67757;SDS011;54562;47.620;18.786;2022-07-09T03:05:03;5.90;;;3.50;;
67757;SDS011;54562;47.620;18.786;2022-07-09T03:08:09;6.60;;;3.50;;
67757;SDS011;54562;47.620;18.786;2022-07-09T03:11:13;7.60;;;3.60;;
67757;SDS011;54562;47.620;18.786;2022-07-09T03:14:19;8.50;;;3.90;;
67757;SDS011;54562;47.620;18.786;2022-07-09T03:17:24;6.40;;;3.50;;
67757;SDS011;54562;47.620;18.786;2022-07-09T03:20:30;8.90;;;3.70;;
67757;SDS011;54562;47.620;18.786;2022-07-09T03:23:34;9.20;;;3.90;;
67757;SDS011;54562;47.620;18.786;2022-07-09T03:26:39;8.20;;;3.60;;
67757;SDS011;54562;47.620;18.786;2022-07-09T03:29:44;6.90;;;3.30;;
67757;SDS011;54562;47.620;18.786;2022-07-09T03:32:48;8.00;;;3.70;;
67757;SDS011;54562;47.620;18.786;2022-07-09T03:35:54;8.90;;;4.00;;
67757;SDS011;54562;47.620;18.786;2022-07-09T03:38:59;9.70;;;3.80;;
67757;SDS011;54562;47.620;18.786;2022-07-09T03:42:05;6.30;;;3.70;;
67757;SDS011;54562;47.620;18.786;2022-07-09T03:45:11;8.70;;;3.70;;
67757;SDS011;54562;47.620;18.786;2022-07-09T03:48:16;7.60;;;4.00;;
67757;SDS011;54562;47.620;18.786;2022-07-09T03:51:21;10.50;;;4.10;;
67757;SDS011;54562;47.620;18.786;2022-07-09T03:54:25;7.50;;;4.00;;
67757;SDS011;54562;47.620;18.786;2022-07-09T03:57:30;7.50;;;3.90;;
67757;SDS011;54562;47.620;18.786;2022-07-09T04:00:35;14.40;;;4.00;;
67757;SDS011;54562;47.620;18.786;2022-07-09T04:03:40;7.40;;;4.00;;
67757;SDS011;54562;47.620;18.786;2022-07-09T04:06:45;6.90;;;3.80;;
67757;SDS011;54562;47.620;18.786;2022-07-09T04:09:49;9.30;;;4.10;;
67757;SDS011;54562;47.620;18.786;2022-07-09T04:12:54;7.30;;;3.90;;
67757;SDS011;54562;47.620;18.786;2022-07-09T04:15:59;6.90;;;3.60;;
67757;SDS011;54562;47.620;18.786;2022-07-09T04:19:04;9.70;;;3.80;;
67757;SDS011;54562;47.620;18.786;2022-07-09T04:22:09;7.70;;;3.90;;
67757;SDS011;54562;47.620;18.786;2022-07-09T04:25:13;11.00;;;4.10;;
67757;SDS011;54562;47.620;18.786;2022-07-09T04:28:19;6.80;;;3.50;;
67757;SDS011;54562;47.620;18.786;2022-07-09T04:31:23;8.10;;;3.90;;
67757;SDS011;54562;47.620;18.786;2022-07-09T04:34:28;10.80;;;4.10;;
67757;SDS011;54562;47.620;18.786;2022-07-09T04:37:33;8.60;;;3.60;;
67757;SDS011;54562;47.620;18.786;2022-07-09T04:40:37;9.90;;;4.20;;
67757;SDS011;54562;47.620;18.786;2022-07-09T04:43:43;8.50;;;3.40;;
67757;SDS011;54562;47.620;18.786;2022-07-09T04:46:47;9.10;;;4.10;;
67757;SDS011;54562;47.620;18.786;2022-07-09T04:49:52;8.00;;;3.60;;
67757;SDS011;54562;47.620;18.786;2022-07-09T04:52:57;8.10;;;3.60;;
67757;SDS011;54562;47.620;18.786;2022-07-09T04:56:01;6.10;;;3.50;;
67757;SDS011;54562;47.620;18.786;2022-07-09T04:59:07;7.20;;;3.70;;
67757;SDS011;54562;47.620;18.786;2022-07-09T05:02:11;9.00;;;3.80;;
67757;SDS011;54562;47.620;18.786;2022-07-09T05:05:17;9.40;;;4.10;;
67757;SDS011;54562;47.620;18.786;2022-07-09T05:08:26;8.10;;;4.00;;
67757;SDS011;54562;47.620;18.786;2022-07-09T05:11:31;9.00;;;3.90;;
67757;SDS011;54562;47.620;18.786;2022-07-09T05:14:36;8.00;;;3.80;;
67757;SDS011;54562;47.620;18.786;2022-07-09T05:17:41;7.90;;;3.80;;
67757;SDS011;54562;47.620;18.786;2022-07-09T05:20:47;7.10;;;3.60;;
67757;SDS011;54562;47.620;18.786;2022-07-09T05:23:51;7.50;;;3.70;;
67757;SDS011;54562;47.620;18.786;2022-07-09T05:26:56;8.20;;;3.80;;
67757;SDS011;54562;47.620;18.786;2022-07-09T05:30:01;6.70;;;3.50;;
67757;SDS011;54562;47.620;18.786;2022-07-09T05:33:06;8.80;;;3.50;;
67757;SDS011;54562;47.620;18.786;2022-07-09T05:36:11;8.80;;;3.70;;
67757;SDS011;54562;47.620;18.786;2022-07-09T05:39:16;8.00;;;3.40;;
67757;SDS011;54562;47.620;18.786;2022-07-09T05:42:21;8.40;;;3.60;;
67757;SDS011;54562;47.620;18.786;2022-07-09T05:45:26;8.30;;;3.60;;
67757;SDS011;54562;47.620;18.786;2022-07-09T05:48:31;9.00;;;3.80;;
67757;SDS011;54562;47.620;18.786;2022-07-09T05:51:36;9.20;;;3.80;;
67757;SDS011;54562;47.620;18.786;2022-07-09T05:54:42;7.40;;;3.50;;
67757;SDS011;54562;47.620;18.786;2022-07-09T05:57:47;7.00;;;3.80;;
67757;SDS011;54562;47.620;18.786;2022-07-09T06:00:52;8.20;;;3.80;;
67757;SDS011;54562;47.620;18.786;2022-07-09T06:03:57;8.00;;;3.90;;
67757;SDS011;54562;47.620;18.786;2022-07-09T06:07:02;6.70;;;3.60;;
67757;SDS011;54562;47.620;18.786;2022-07-09T06:10:09;8.10;;;3.90;;
67757;SDS011;54562;47.620;18.786;2022-07-09T06:13:15;8.20;;;3.80;;
67757;SDS011;54562;47.620;18.786;2022-07-09T06:16:20;7.30;;;3.90;;
67757;SDS011;54562;47.620;18.786;2022-07-09T06:19:25;7.30;;;3.90;;
67757;SDS011;54562;47.620;18.786;2022-07-09T06:22:30;6.80;;;3.40;;
67757;SDS011;54562;47.620;18.786;2022-07-09T06:25:35;8.80;;;3.40;;
67757;SDS011;54562;47.620;18.786;2022-07-09T06:28:40;8.80;;;3.80;;
67757;SDS011;54562;47.620;18.786;2022-07-09T06:31:45;8.00;;;3.60;;
67757;SDS011;54562;47.620;18.786;2022-07-09T06:34:50;9.70;;;3.80;;
67757;SDS011;54562;47.620;18.786;2022-07-09T06:37:55;7.10;;;3.50;;
67757;SDS011;54562;47.620;18.786;2022-07-09T06:41:00;8.20;;;3.60;;
67757;SDS011;54562;47.620;18.786;2022-07-09T06:44:05;6.70;;;3.70;;
67757;SDS011;54562;47.620;18.786;2022-07-09T06:47:10;9.80;;;3.90;;
67757;SDS011;54562;47.620;18.786;2022-07-09T06:50:15;6.20;;;3.60;;
67757;SDS011;54562;47.620;18.786;2022-07-09T06:53:20;7.50;;;3.60;;
67757;SDS011;54562;47.620;18.786;2022-07-09T06:56:25;8.60;;;3.90;;
67757;SDS011;54562;47.620;18.786;2022-07-09T06:59:30;7.70;;;3.70;;
67757;SDS011;54562;47.620;18.786;2022-07-09T07:02:35;8.40;;;3.80;;
67757;SDS011;54562;47.620;18.786;2022-07-09T07:05:40;7.40;;;3.60;;
67757;SDS011;54562;47.620;18.786;2022-07-09T07:08:45;9.30;;;3.60;;
67757;SDS011;54562;47.620;18.786;2022-07-09T07:11:50;7.50;;;3.70;;
67757;SDS011;54562;47.620;18.786;2022-07-09T07:14:55;9.20;;;3.60;;
67757;SDS011;54562;47.620;18.786;2022-07-09T07:18:00;7.60;;;3.50;;
67757;SDS011;54562;47.620;18.786;2022-07-09T07:21:05;6.90;;;3.40;;
67757;SDS011;54562;47.620;18.786;2022-07-09T07:24:10;6.40;;;3.50;;
67757;SDS011;54562;47.620;18.786;2022-07-09T07:27:16;9.50;;;3.30;;
67757;SDS011;54562;47.620;18.786;2022-07-09T07:30:21;6.60;;;3.20;;
67757;SDS011;54562;47.620;18.786;2022-07-09T07:33:26;6.70;;;3.30;;
67757;SDS011;54562;47.620;18.786;2022-07-09T07:36:31;7.50;;;3.30;;
67757;SDS011;54562;47.620;18.786;2022-07-09T07:39:37;7.60;;;3.10;;
67757;SDS011;54562;47.620;18.786;2022-07-09T07:42:42;6.60;;;3.10;;
67757;SDS011;54562;47.620;18.786;2022-07-09T07:45:47;7.70;;;3.30;;
67757;SDS011;54562;47.620;18.786;2022-07-09T07:48:52;6.60;;;3.20;;
67757;SDS011;54562;47.620;18.786;2022-07-09T07:51:57;8.20;;;2.90;;
67757;SDS011;54562;47.620;18.786;2022-07-09T07:55:02;8.10;;;3.10;;
67757;SDS011;54562;47.620;18.786;2022-07-09T07:58:08;6.00;;;2.90;;
67757;SDS011;54562;47.620;18.786;2022-07-09T08:01:13;7.60;;;2.90;;
67757;SDS011;54562;47.620;18.786;2022-07-09T08:04:18;7.40;;;3.00;;
67757;SDS011;54562;47.620;18.786;2022-07-09T08:07:22;6.00;;;2.90;;
67757;SDS011;54562;47.620;18.786;2022-07-09T08:10:27;5.50;;;2.90;;
67757;SDS011;54562;47.620;18.786;2022-07-09T08:13:38;7.50;;;2.60;;
67757;SDS011;54562;47.620;18.786;2022-07-09T08:16:44;7.70;;;2.60;;
67757;SDS011;54562;47.620;18.786;2022-07-09T08:19:48;5.70;;;2.70;;
67757;SDS011;54562;47.620;18.786;2022-07-09T08:22:53;6.90;;;2.70;;
67757;SDS011;54562;47.620;18.786;2022-07-09T08:25:58;5.80;;;2.60;;
67757;SDS011;54562;47.620;18.786;2022-07-09T08:29:03;5.10;;;2.30;;
67757;SDS011;54562;47.620;18.786;2022-07-09T08:32:09;6.20;;;2.80;;
67757;SDS011;54562;47.620;18.786;2022-07-09T08:35:13;8.40;;;2.50;;
67757;SDS011;54562;47.620;18.786;2022-07-09T08:38:18;6.90;;;2.60;;
67757;SDS011;54562;47.620;18.786;2022-07-09T08:41:24;6.60;;;2.90;;
67757;SDS011;54562;47.620;18.786;2022-07-09T08:44:30;8.70;;;2.60;;
67757;SDS011;54562;47.620;18.786;2022-07-09T08:47:39;5.90;;;2.60;;
67757;SDS011;54562;47.620;18.786;2022-07-09T08:50:45;7.40;;;2.70;;
67757;SDS011;54562;47.620;18.786;2022-07-09T08:53:54;5.50;;;2.60;;
67757;SDS011;54562;47.620;18.786;2022-07-09T08:56:59;7.20;;;2.30;;
67757;SDS011;54562;47.620;18.786;2022-07-09T09:00:06;6.80;;;2.40;;
67757;SDS011;54562;47.620;18.786;2022-07-09T09:03:11;7.50;;;2.30;;
67757;SDS011;54562;47.620;18.786;2022-07-09T09:06:20;10.90;;;2.60;;
67757;SDS011;54562;47.620;18.786;2022-07-09T09:09:26;6.30;;;2.50;;
67757;SDS011;54562;47.620;18.786;2022-07-09T09:12:31;8.50;;;2.40;;
67757;SDS011;54562;47.620;18.786;2022-07-09T09:15:36;8.70;;;2.40;;
67757;SDS011;54562;47.620;18.786;2022-07-09T09:18:42;7.80;;;2.50;;
67757;SDS011;54562;47.620;18.786;2022-07-09T09:21:52;6.40;;;2.20;;
67757;SDS011;54562;47.620;18.786;2022-07-09T09:24:57;7.50;;;2.10;;
67757;SDS011;54562;47.620;18.786;2022-07-09T09:28:02;6.30;;;2.30;;
67757;SDS011;54562;47.620;18.786;2022-07-09T09:31:19;5.70;;;2.20;;
67757;SDS011;54562;47.620;18.786;2022-07-09T09:34:25;5.00;;;1.90;;
67757;SDS011;54562;47.620;18.786;2022-07-09T09:37:30;6.30;;;2.20;;
67757;SDS011;54562;47.620;18.786;2022-07-09T09:40:36;7.60;;;2.20;;
67757;SDS011;54562;47.620;18.786;2022-07-09T09:43:43;5.30;;;2.00;;
67757;SDS011;54562;47.620;18.786;2022-07-09T09:46:48;5.50;;;2.00;;
67757;SDS011;54562;47.620;18.786;2022-07-09T09:49:54;5.80;;;2.20;;
67757;SDS011;54562;47.620;18.786;2022-07-09T09:53:02;11.10;;;2.30;;
67757;SDS011;54562;47.620;18.786;2022-07-09T09:56:09;7.90;;;2.10;;
67757;SDS011;54562;47.620;18.786;2022-07-09T09:59:14;7.20;;;2.10;;
67757;SDS011;54562;47.620;18.786;2022-07-09T10:02:21;4.50;;;2.10;;
67757;SDS011;54562;47.620;18.786;2022-07-09T10:05:28;5.90;;;2.30;;
67757;SDS011;54562;47.620;18.786;2022-07-09T10:08:33;5.80;;;2.10;;
67757;SDS011;54562;47.620;18.786;2022-07-09T10:11:40;6.30;;;2.00;;
67757;SDS011;54562;47.620;18.786;2022-07-09T10:14:48;5.00;;;2.10;;
67757;SDS011;54562;47.620;18.786;2022-07-09T10:17:53;6.10;;;1.90;;
67757;SDS011;54562;47.620;18.786;2022-07-09T10:20:59;5.30;;;2.10;;
67757;SDS011;54562;47.620;18.786;2022-07-09T10:24:05;5.20;;;2.30;;
67757;SDS011;54562;47.620;18.786;2022-07-09T10:27:12;5.30;;;2.20;;
67757;SDS011;54562;47.620;18.786;2022-07-09T10:30:24;5.90;;;2.00;;
67757;SDS011;54562;47.620;18.786;2022-07-09T10:33:33;6.20;;;2.00;;
67757;SDS011;54562;47.620;18.786;2022-07-09T10:36:38;5.40;;;1.80;;
67757;SDS011;54562;47.620;18.786;2022-07-09T10:39:53;4.50;;;1.90;;
67757;SDS011;54562;47.620;18.786;2022-07-09T10:43:00;3.60;;;1.70;;
67757;SDS011;54562;47.620;18.786;2022-07-09T10:46:11;5.90;;;1.70;;
67757;SDS011;54562;47.620;18.786;2022-07-09T10:49:17;4.80;;;2.00;;
67757;SDS011;54562;47.620;18.786;2022-07-09T10:52:30;4.30;;;1.80;;
67757;SDS011;54562;47.620;18.786;2022-07-09T10:55:35;6.60;;;1.90;;
67757;SDS011;54562;47.620;18.786;2022-07-09T10:58:46;5.80;;;1.80;;
67757;SDS011;54562;47.620;18.786;2022-07-09T11:01:51;5.30;;;2.00;;
67757;SDS011;54562;47.620;18.786;2022-07-09T11:04:58;3.70;;;1.70;;
67757;SDS011;54562;47.620;18.786;2022-07-09T11:08:05;5.50;;;1.90;;
67757;SDS011;54562;47.620;18.786;2022-07-09T11:11:11;6.80;;;1.70;;
67757;SDS011;54562;47.620;18.786;2022-07-09T11:14:16;6.10;;;1.80;;
67757;SDS011;54562;47.620;18.786;2022-07-09T11:17:22;5.20;;;1.70;;
67757;SDS011;54562;47.620;18.786;2022-07-09T11:20:27;4.90;;;1.80;;
67757;SDS011;54562;47.620;18.786;2022-07-09T11:23:32;4.60;;;1.70;;
67757;SDS011;54562;47.620;18.786;2022-07-09T11:26:37;6.90;;;1.70;;
67757;SDS011;54562;47.620;18.786;2022-07-09T11:29:46;4.20;;;1.60;;
67757;SDS011;54562;47.620;18.786;2022-07-09T11:35:55;6.30;;;1.50;;
67757;SDS011;54562;47.620;18.786;2022-07-09T11:39:00;3.90;;;1.60;;
67757;SDS011;54562;47.620;18.786;2022-07-09T11:42:05;3.80;;;1.30;;
67757;SDS011;54562;47.620;18.786;2022-07-09T11:45:11;3.70;;;1.50;;
67757;SDS011;54562;47.620;18.786;2022-07-09T11:48:16;2.60;;;1.40;;
67757;SDS011;54562;47.620;18.786;2022-07-09T11:51:28;3.50;;;1.60;;
67757;SDS011;54562;47.620;18.786;2022-07-09T11:54:35;5.40;;;1.90;;
67757;SDS011;54562;47.620;18.786;2022-07-09T11:57:51;4.10;;;1.50;;
67757;SDS011;54562;47.620;18.786;2022-07-09T12:01:01;5.60;;;2.10;;
67757;SDS011;54562;47.620;18.786;2022-07-09T12:04:19;3.10;;;1.30;;
67757;SDS011;54562;47.620;18.786;2022-07-09T12:07:24;6.40;;;1.40;;
67757;SDS011;54562;47.620;18.786;2022-07-09T12:10:30;4.30;;;1.50;;
67757;SDS011;54562;47.620;18.786;2022-07-09T12:13:36;3.80;;;1.40;;
67757;SDS011;54562;47.620;18.786;2022-07-09T12:16:41;4.40;;;1.50;;
67757;SDS011;54562;47.620;18.786;2022-07-09T12:19:46;5.20;;;1.70;;
67757;SDS011;54562;47.620;18.786;2022-07-09T12:22:51;3.40;;;1.40;;
67757;SDS011;54562;47.620;18.786;2022-07-09T12:25:57;3.10;;;1.50;;
67757;SDS011;54562;47.620;18.786;2022-07-09T12:29:02;4.10;;;1.60;;
67757;SDS011;54562;47.620;18.786;2022-07-09T12:32:07;3.40;;;1.40;;
67757;SDS011;54562;47.620;18.786;2022-07-09T12:35:13;5.50;;;1.60;;
67757;SDS011;54562;47.620;18.786;2022-07-09T12:38:19;3.20;;;1.30;;
67757;SDS011;54562;47.620;18.786;2022-07-09T12:41:24;3.80;;;1.30;;
67757;SDS011;54562;47.620;18.786;2022-07-09T12:44:29;3.50;;;1.50;;
67757;SDS011;54562;47.620;18.786;2022-07-09T12:47:34;2.80;;;1.30;;
67757;SDS011;54562;47.620;18.786;2022-07-09T12:50:38;2.50;;;1.30;;
67757;SDS011;54562;47.620;18.786;2022-07-09T12:53:44;3.50;;;1.30;;
67757;SDS011;54562;47.620;18.786;2022-07-09T12:56:48;3.00;;;1.30;;
67757;SDS011;54562;47.620;18.786;2022-07-09T13:00:13;2.70;;;1.20;;
67757;SDS011;54562;47.620;18.786;2022-07-09T13:03:18;3.90;;;1.20;;
67757;SDS011;54562;47.620;18.786;2022-07-09T13:06:23;4.40;;;1.40;;
67757;SDS011;54562;47.620;18.786;2022-07-09T13:09:38;6.70;;;1.80;;
67757;SDS011;54562;47.620;18.786;2022-07-09T13:12:43;4.30;;;1.20;;
67757;SDS011;54562;47.620;18.786;2022-07-09T13:15:47;4.40;;;1.40;;
67757;SDS011;54562;47.620;18.786;2022-07-09T13:18:54;3.50;;;1.30;;
67757;SDS011;54562;47.620;18.786;2022-07-09T13:21:59;3.00;;;1.20;;
67757;SDS011;54562;47.620;18.786;2022-07-09T13:25:05;5.30;;;1.40;;
67757;SDS011;54562;47.620;18.786;2022-07-09T13:28:11;3.20;;;1.40;;
67757;SDS011;54562;47.620;18.786;2022-07-09T13:31:16;2.70;;;1.40;;
67757;SDS011;54562;47.620;18.786;2022-07-09T13:34:24;4.50;;;1.60;;
67757;SDS011;54562;47.620;18.786;2022-07-09T13:37:29;2.60;;;1.40;;
67757;SDS011;54562;47.620;18.786;2022-07-09T13:40:34;4.40;;;1.50;;
67757;SDS011;54562;47.620;18.786;2022-07-09T13:43:39;4.30;;;1.50;;
67757;SDS011;54562;47.620;18.786;2022-07-09T13:46:48;3.80;;;1.40;;
67757;SDS011;54562;47.620;18.786;2022-07-09T13:49:53;5.10;;;1.50;;
67757;SDS011;54562;47.620;18.786;2022-07-09T13:52:59;3.20;;;1.50;;
67757;SDS011;54562;47.620;18.786;2022-07-09T13:56:05;3.80;;;1.40;;
67757;SDS011;54562;47.620;18.786;2022-07-09T13:59:10;5.70;;;1.60;;
67757;SDS011;54562;47.620;18.786;2022-07-09T14:02:15;3.20;;;1.50;;
67757;SDS011;54562;47.620;18.786;2022-07-09T14:05:23;5.70;;;1.60;;
67757;SDS011;54562;47.620;18.786;2022-07-09T14:08:28;3.50;;;1.60;;
67757;SDS011;54562;47.620;18.786;2022-07-09T14:11:33;3.10;;;1.50;;
67757;SDS011;54562;47.620;18.786;2022-07-09T14:14:38;4.20;;;1.50;;
67757;SDS011;54562;47.620;18.786;2022-07-09T14:17:43;3.50;;;1.60;;
67757;SDS011;54562;47.620;18.786;2022-07-09T14:20:48;3.50;;;1.60;;
67757;SDS011;54562;47.620;18.786;2022-07-09T14:23:53;3.50;;;1.30;;
67757;SDS011;54562;47.620;18.786;2022-07-09T14:26:58;3.10;;;1.40;;
67757;SDS011;54562;47.620;18.786;2022-07-09T14:30:04;3.50;;;1.40;;
67757;SDS011;54562;47.620;18.786;2022-07-09T14:33:10;3.10;;;1.40;;
67757;SDS011;54562;47.620;18.786;2022-07-09T14:36:16;4.80;;;1.60;;
67757;SDS011;54562;47.620;18.786;2022-07-09T14:39:21;4.40;;;1.50;;
67757;SDS011;54562;47.620;18.786;2022-07-09T14:42:26;4.60;;;1.60;;
67757;SDS011;54562;47.620;18.786;2022-07-09T14:45:31;4.60;;;1.60;;
67757;SDS011;54562;47.620;18.786;2022-07-09T14:48:41;3.30;;;1.40;;
67757;SDS011;54562;47.620;18.786;2022-07-09T14:51:45;3.60;;;1.40;;
67757;SDS011;54562;47.620;18.786;2022-07-09T14:54:50;3.90;;;1.70;;
67757;SDS011;54562;47.620;18.786;2022-07-09T14:57:55;5.70;;;1.90;;
67757;SDS011;54562;47.620;18.786;2022-07-09T15:01:00;5.60;;;1.50;;
67757;SDS011;54562;47.620;18.786;2022-07-09T15:04:05;4.00;;;1.50;;
67757;SDS011;54562;47.620;18.786;2022-07-09T15:07:11;6.10;;;1.80;;
67757;SDS011;54562;47.620;18.786;2022-07-09T15:10:16;4.40;;;1.70;;
67757;SDS011;54562;47.620;18.786;2022-07-09T15:13:21;3.80;;;1.70;;
67757;SDS011;54562;47.620;18.786;2022-07-09T15:16:27;6.20;;;1.50;;
67757;SDS011;54562;47.620;18.786;2022-07-09T15:19:33;3.90;;;1.80;;
67757;SDS011;54562;47.620;18.786;2022-07-09T15:22:38;4.20;;;1.60;;
67757;SDS011;54562;47.620;18.786;2022-07-09T15:25:43;7.20;;;1.70;;
67757;SDS011;54562;47.620;18.786;2022-07-09T15:28:48;3.80;;;1.70;;
67757;SDS011;54562;47.620;18.786;2022-07-09T15:31:53;3.80;;;1.70;;
67757;SDS011;54562;47.620;18.786;2022-07-09T15:34:58;3.30;;;1.50;;
67757;SDS011;54562;47.620;18.786;2022-07-09T15:38:06;4.80;;;1.90;;
67757;SDS011;54562;47.620;18.786;2022-07-09T15:41:11;5.20;;;1.70;;
67757;SDS011;54562;47.620;18.786;2022-07-09T15:44:16;4.80;;;1.60;;
67757;SDS011;54562;47.620;18.786;2022-07-09T15:47:21;5.60;;;1.90;;
67757;SDS011;54562;47.620;18.786;2022-07-09T15:50:26;4.00;;;1.70;;
67757;SDS011;54562;47.620;18.786;2022-07-09T15:53:31;5.20;;;1.70;;
67757;SDS011;54562;47.620;18.786;2022-07-09T15:56:36;4.20;;;1.90;;
67757;SDS011;54562;47.620;18.786;2022-07-09T15:59:41;5.10;;;1.80;;
67757;SDS011;54562;47.620;18.786;2022-07-09T16:02:46;4.30;;;1.70;;
67757;SDS011;54562;47.620;18.786;2022-07-09T16:05:51;4.90;;;1.60;;
67757;SDS011;54562;47.620;18.786;2022-07-09T16:08:56;5.00;;;1.70;;
67757;SDS011;54562;47.620;18.786;2022-07-09T16:12:01;3.60;;;1.60;;
67757;SDS011;54562;47.620;18.786;2022-07-09T16:15:26;5.10;;;1.70;;
67757;SDS011;54562;47.620;18.786;2022-07-09T16:18:31;6.40;;;1.60;;
67757;SDS011;54562;47.620;18.786;2022-07-09T16:21:36;5.20;;;1.80;;
67757;SDS011;54562;47.620;18.786;2022-07-09T16:24:41;4.60;;;1.60;;
67757;SDS011;54562;47.620;18.786;2022-07-09T16:27:46;4.00;;;1.70;;
67757;SDS011;54562;47.620;18.786;2022-07-09T16:30:51;5.60;;;1.80;;
67757;SDS011;54562;47.620;18.786;2022-07-09T16:33:57;9.00;;;2.10;;
67757;SDS011;54562;47.620;18.786;2022-07-09T16:37:02;22.50;;;5.10;;
67757;SDS011;54562;47.620;18.786;2022-07-09T16:40:09;6.90;;;1.80;;
67757;SDS011;54562;47.620;18.786;2022-07-09T16:43:14;4.60;;;1.60;;
67757;SDS011;54562;47.620;18.786;2022-07-09T16:46:19;4.00;;;1.60;;
67757;SDS011;54562;47.620;18.786;2022-07-09T16:49:24;4.30;;;1.70;;
67757;SDS011;54562;47.620;18.786;2022-07-09T16:52:50;5.00;;;1.80;;
67757;SDS011;54562;47.620;18.786;2022-07-09T16:55:55;4.00;;;1.70;;
67757;SDS011;54562;47.620;18.786;2022-07-09T16:59:00;3.60;;;1.60;;
67757;SDS011;54562;47.620;18.786;2022-07-09T17:02:05;4.50;;;1.60;;
67757;SDS011;54562;47.620;18.786;2022-07-09T17:05:11;5.70;;;1.70;;
67757;SDS011;54562;47.620;18.786;2022-07-09T17:08:16;14.00;;;2.60;;
67757;SDS011;54562;47.620;18.786;2022-07-09T17:11:22;4.20;;;1.60;;
67757;SDS011;54562;47.620;18.786;2022-07-09T17:14:26;4.60;;;1.70;;
67757;SDS011;54562;47.620;18.786;2022-07-09T17:17:31;3.20;;;1.50;;
67757;SDS011;54562;47.620;18.786;2022-07-09T17:20:36;4.50;;;1.60;;
67757;SDS011;54562;47.620;18.786;2022-07-09T17:23:41;6.60;;;1.60;;
67757;SDS011;54562;47.620;18.786;2022-07-09T17:26:47;4.40;;;1.50;;
67757;SDS011;54562;47.620;18.786;2022-07-09T17:29:52;5.20;;;1.70;;
67757;SDS011;54562;47.620;18.786;2022-07-09T17:32:57;3.30;;;1.50;;
67757;SDS011;54562;47.620;18.786;2022-07-09T17:36:03;4.40;;;1.70;;
67757;SDS011;54562;47.620;18.786;2022-07-09T17:39:08;5.20;;;1.60;;
67757;SDS011;54562;47.620;18.786;2022-07-09T17:42:15;5.80;;;1.70;;
67757;SDS011;54562;47.620;18.786;2022-07-09T17:45:20;3.00;;;1.50;;
67757;SDS011;54562;47.620;18.786;2022-07-09T17:48:25;3.90;;;1.70;;
67757;SDS011;54562;47.620;18.786;2022-07-09T17:51:30;3.70;;;1.60;;
67757;SDS011;54562;47.620;18.786;2022-07-09T17:54:35;5.30;;;1.70;;
67757;SDS011;54562;47.620;18.786;2022-07-09T17:57:40;4.20;;;1.80;;
67757;SDS011;54562;47.620;18.786;2022-07-09T18:00:46;4.20;;;1.70;;
67757;SDS011;54562;47.620;18.786;2022-07-09T18:03:50;4.50;;;1.70;;
67757;SDS011;54562;47.620;18.786;2022-07-09T18:06:55;3.80;;;1.60;;
67757;SDS011;54562;47.620;18.786;2022-07-09T18:10:00;4.20;;;1.80;;
67757;SDS011;54562;47.620;18.786;2022-07-09T18:13:05;4.20;;;1.50;;
67757;SDS011;54562;47.620;18.786;2022-07-09T18:16:10;11.50;;;2.10;;
67757;SDS011;54562;47.620;18.786;2022-07-09T18:19:15;13.00;;;2.00;;
67757;SDS011;54562;47.620;18.786;2022-07-09T18:22:20;6.40;;;1.70;;
67757;SDS011;54562;47.620;18.786;2022-07-09T18:25:25;3.40;;;1.50;;